Time;durP1;ratioP1;P1;durP2;ratioP2;P2;SDS_P1;SDS_P2;PMS_P1;PMS_P2;Temp;Humidity;BMP_temperature;BMP_pressure;BME280_temperature;BME280_humidity;BME280_pressure;Samples;Min_cycle;Max_cycle;Signal;HPM_P1;HPM_P2
2023/01/07 00:02:13;;;;;;;9.07;4.10;;;;;;;7.17;100.00;101195.47;5982672;29;20070;-76
2023/01/07 00:05:09;;;;;;;8.83;4.33;;;;;;;7.19;100.00;101189.13;5983872;29;20130;-76
2023/01/07 00:08:04;;;;;;;8.57;4.27;;;;;;;7.15;100.00;101170.97;5983494;29;20489;-77
2023/01/07 00:11:04;;;;;;;10.50;4.70;;;;;;;7.18;100.00;101176.88;5982878;29;20028;-77
2023/01/07 00:14:00;;;;;;;9.88;5.28;;;;;;;7.27;100.00;101163.97;5980459;29;20177;-76
2023/01/07 00:16:55;;;;;;;9.60;4.90;;;;;;;7.27;100.00;101166.59;5983232;29;20035;-77
2023/01/07 00:19:50;;;;;;;8.77;4.10;;;;;;;7.19;100.00;101146.94;5953375;28;1014464;-76
2023/01/07 00:22:45;;;;;;;9.97;4.10;;;;;;;7.26;100.00;101149.94;5988694;29;20039;-76
2023/01/07 00:25:41;;;;;;;8.73;3.97;;;;;;;7.16;100.00;101141.03;5989067;29;20034;-76
2023/01/07 00:28:40;;;;;;;6.80;3.53;;;;;;;7.18;100.00;101153.16;5988953;29;20162;-77
2023/01/07 00:31:37;;;;;;;8.93;4.38;;;;;;;7.14;100.00;101154.34;5990400;29;20042;-76
2023/01/07 00:34:33;;;;;;;8.00;4.20;;;;;;;7.10;100.00;101152.88;5988399;29;20047;-76
2023/01/07 00:40:42;;;;;;;;;;;;;;;7.09;100.00;101153.00;5990964;29;20615;-76
2023/01/07 00:43:38;;;;;;;8.93;3.97;;;;;;;7.12;100.00;101155.41;5990189;29;19914;-77
2023/01/07 00:46:33;;;;;;;9.70;4.47;;;;;;;7.09;100.00;101161.72;5989306;29;20038;-78
2023/01/07 00:49:28;;;;;;;7.60;3.53;;;;;;;7.21;100.00;101157.34;5983435;29;20768;-77
2023/01/07 00:52:24;;;;;;;5.90;3.23;;;;;;;7.31;100.00;101157.53;5985821;28;20311;-78
2023/01/07 00:55:20;;;;;;;8.93;3.73;;;;;;;7.41;100.00;101161.16;5989602;28;20034;-76
2023/01/07 00:58:23;;;;;;;7.35;3.28;;;;;;;7.52;100.00;101140.06;5992582;29;20035;-77
2023/01/07 01:01:18;;;;;;;5.50;3.20;;;;;;;7.61;100.00;101152.59;5994576;29;20074;-76
2023/01/07 01:04:14;;;;;;;6.23;3.07;;;;;;;7.76;100.00;101151.41;5991183;29;20035;-77
2023/01/07 01:07:09;;;;;;;5.60;2.90;;;;;;;7.86;100.00;101152.38;5983198;29;20053;-77
2023/01/07 01:10:06;;;;;;;4.67;2.57;;;;;;;7.85;100.00;101148.06;5982748;29;20390;-76
2023/01/07 01:13:02;;;;;;;5.30;2.10;;;;;;;7.86;100.00;101147.09;5982343;29;20046;-76
2023/01/07 01:15:58;;;;;;;4.90;2.33;;;;;;;8.00;100.00;101148.66;5983223;29;20042;-77
2023/01/07 01:18:53;;;;;;;4.60;2.15;;;;;;;7.99;100.00;101158.38;5983353;29;20558;-76
2023/01/07 01:21:48;;;;;;;4.37;2.27;;;;;;;8.03;100.00;101154.56;5982542;28;20039;-76
2023/01/07 01:24:44;;;;;;;4.00;2.00;;;;;;;8.04;100.00;101148.34;5982565;29;20092;-76
2023/01/07 01:27:39;;;;;;;3.97;1.87;;;;;;;8.11;100.00;101152.16;5982991;29;20491;-75
2023/01/07 01:30:34;;;;;;;3.63;1.63;;;;;;;8.18;100.00;101158.63;5982729;29;20685;-76
2023/01/07 01:33:30;;;;;;;2.90;1.80;;;;;;;8.14;100.00;101157.22;5982374;29;20681;-75
2023/01/07 01:36:25;;;;;;;6.20;1.80;;;;;;;8.18;100.00;101153.34;5977987;29;20090;-75
2023/01/07 01:39:21;;;;;;;3.58;1.63;;;;;;;8.27;100.00;101162.41;5982544;29;20646;-77
2023/01/07 01:42:20;;;;;;;3.03;1.90;;;;;;;8.20;100.00;101151.47;5981011;29;20054;-77
2023/01/07 01:45:15;;;;;;;3.13;1.92;;;;;;;8.17;100.00;101140.28;5982686;29;20066;-76
2023/01/07 01:48:10;;;;;;;3.60;1.73;;;;;;;8.15;100.00;101142.22;5982165;29;20081;-76
2023/01/07 01:51:08;;;;;;;4.97;2.57;;;;;;;8.18;100.00;101152.53;5965304;29;20287;-75
2023/01/07 01:54:07;;;;;;;3.85;2.00;;;;;;;8.13;100.00;101144.97;5964115;29;20392;-76
2023/01/07 01:57:04;;;;;;;3.97;2.10;;;;;;;8.13;100.00;101134.38;5961666;29;20040;-76
2023/01/07 01:59:59;;;;;;;3.78;2.35;;;;;;;8.22;100.00;101146.88;5965559;29;20141;-76
2023/01/07 02:02:56;;;;;;;4.68;2.33;;;;;;;8.10;100.00;101123.25;5986443;28;20454;-75
2023/01/07 02:05:51;;;;;;;4.20;2.53;;;;;;;8.19;100.00;101136.56;5987345;29;20038;-75
2023/01/07 02:08:47;;;;;;;5.10;2.83;;;;;;;8.19;100.00;101139.19;5989515;29;20031;-75
2023/01/07 02:11:55;;;;;;;4.83;2.47;;;;;;;8.09;100.00;101121.56;5992937;29;20342;-78
2023/01/07 02:15:12;;;;;;;5.55;2.70;;;;;;;8.13;100.00;101131.75;5974772;29;20043;-76
2023/01/07 02:18:35;;;;;;;4.05;2.40;;;;;;;8.17;100.00;101141.13;5976306;29;20031;-75
2023/01/07 02:21:47;;;;;;;3.92;2.17;;;;;;;8.14;100.00;101146.66;5989042;28;20031;-75
2023/01/07 02:25:03;;;;;;;5.03;2.40;;;;;;;8.07;100.00;101120.84;5991964;29;20027;-76
2023/01/07 02:28:05;;;;;;;4.45;2.30;;;;;;;8.19;100.00;101149.78;5974645;29;20403;-76
2023/01/07 02:31:19;;;;;;;4.25;2.00;;;;;;;8.18;100.00;101147.25;5989889;29;20035;-78
2023/01/07 02:34:41;;;;;;;3.05;1.73;;;;;;;8.09;100.00;101114.47;5985361;29;20031;-77
2023/01/07 02:37:46;;;;;;;3.70;2.10;;;;;;;8.24;100.00;101139.69;5985507;29;20035;-77
2023/01/07 02:40:47;;;;;;;2.88;1.60;;;;;;;8.15;100.00;101127.19;5989989;29;20043;-76
2023/01/07 02:44:05;;;;;;;2.78;1.58;;;;;;;8.04;100.00;101124.56;5971247;29;20078;-76
2023/01/07 02:47:14;;;;;;;2.47;1.50;;;;;;;7.95;100.00;101103.31;5968487;29;20043;-78
2023/01/07 02:50:09;;;;;;;3.45;1.80;;;;;;;7.97;100.00;101115.41;5968679;29;20031;-77
2023/01/07 02:53:07;;;;;;;2.83;1.70;;;;;;;7.94;100.00;101122.72;5984688;29;20042;-77
2023/01/07 02:56:30;;;;;;;2.45;1.23;;;;;;;7.91;100.00;101125.63;5987327;29;20770;-76
2023/01/07 02:59:32;;;;;;;3.17;1.60;;;;;;;7.86;100.00;101102.22;5986009;28;20031;-76
2023/01/07 03:02:51;;;;;;;3.50;1.52;;;;;;;7.94;100.00;101102.47;5984875;29;20093;-78
2023/01/07 03:05:59;;;;;;;2.58;1.45;;;;;;;8.05;100.00;101118.31;5967772;29;20085;-77
2023/01/07 03:09:42;;;;;;;3.28;1.52;;;;;;;8.01;100.00;101101.03;5964862;29;20394;-76
2023/01/07 03:13:01;;;;;;;2.80;1.50;;;;;;;8.17;100.00;101109.44;5931080;29;20046;-77
2023/01/07 03:16:04;;;;;;;3.10;1.60;;;;;;;8.20;100.00;101109.19;5979154;29;20142;-76
2023/01/07 03:19:04;;;;;;;3.03;1.50;;;;;;;8.13;100.00;101086.84;5963372;29;20125;-77
2023/01/07 03:22:01;;;;;;;3.50;1.85;;;;;;;8.15;100.00;101092.84;5962719;29;20043;-77
2023/01/07 03:24:57;;;;;;;2.80;1.50;;;;;;;8.20;100.00;101103.91;5962775;29;20475;-74
2023/01/07 03:27:53;;;;;;;3.33;1.75;;;;;;;8.20;100.00;101093.34;5962854;29;20031;-75
2023/01/07 03:30:50;;;;;;;2.60;1.67;;;;;;;8.16;100.00;101081.31;5980314;29;20047;-75
2023/01/07 03:33:55;;;;;;;4.00;2.08;;;;;;;8.21;100.00;101095.00;5962195;29;20050;-77
2023/01/07 03:36:55;;;;;;;4.65;1.88;;;;;;;8.13;100.00;101086.84;5962998;29;20375;-77
2023/01/07 03:39:51;;;;;;;3.47;1.88;;;;;;;8.12;100.00;101085.19;5977262;29;20430;-76
2023/01/07 03:42:47;;;;;;;4.68;1.90;;;;;;;7.99;100.00;101071.25;5961498;29;20467;-77
2023/01/07 03:45:43;;;;;;;4.93;2.22;;;;;;;8.14;100.00;101093.81;5980040;29;20035;-76
2023/01/07 03:48:38;;;;;;;4.57;1.93;;;;;;;8.07;100.00;101092.59;5979818;29;20047;-77
2023/01/07 03:51:33;;;;;;;3.77;2.17;;;;;;;7.99;100.00;101081.81;5980204;29;20039;-77
2023/01/07 03:54:29;;;;;;;3.63;2.17;;;;;;;7.87;100.00;101069.59;5978887;29;20043;-76
2023/01/07 03:57:24;;;;;;;4.17;2.30;;;;;;;7.99;100.00;101075.72;5979727;28;20521;-76
2023/01/07 04:00:19;;;;;;;5.20;2.43;;;;;;;7.91;100.00;101060.44;5979479;28;20478;-76
2023/01/07 04:03:15;;;;;;;4.60;2.80;;;;;;;7.88;100.00;101055.41;5978953;29;20031;-77
2023/01/07 04:06:10;;;;;;;6.30;2.45;;;;;;;7.96;100.00;101068.88;5979377;29;20074;-75
2023/01/07 04:09:05;;;;;;;3.50;2.10;;;;;;;7.87;100.00;101044.97;5979269;29;20035;-78
2023/01/07 04:12:00;;;;;;;4.13;2.20;;;;;;;7.93;100.00;101037.41;5978928;29;20483;-75
2023/01/07 04:14:56;;;;;;;4.57;1.97;;;;;;;7.90;100.00;101035.03;5979484;29;20023;-76
2023/01/07 04:17:51;;;;;;;4.40;2.00;;;;;;;8.00;100.00;101035.97;5979474;29;20031;-77
2023/01/07 04:20:47;;;;;;;3.30;1.90;;;;;;;8.09;100.00;101042.31;5979233;28;20114;-78
2023/01/07 04:23:42;;;;;;;4.00;1.75;;;;;;;8.13;100.00;101027.88;5978507;29;20038;-76
2023/01/07 04:26:37;;;;;;;3.93;1.17;;;;;;;8.22;100.00;101038.56;5972940;28;20550;-77
2023/01/07 04:29:33;;;;;;;2.97;1.80;;;;;;;8.25;100.00;101033.06;5972867;29;20118;-76
2023/01/07 04:32:28;;;;;;;3.77;1.60;;;;;;;8.24;100.00;101047.22;5978806;29;20042;-76
2023/01/07 04:35:23;;;;;;;3.93;1.30;;;;;;;8.30;100.00;101046.75;5979066;29;20398;-78
2023/01/07 04:38:19;;;;;;;3.30;1.50;;;;;;;8.23;100.00;101029.69;5979010;29;20505;-77
2023/01/07 04:41:14;;;;;;;2.53;1.20;;;;;;;8.15;100.00;101012.78;5979536;29;20059;-78
2023/01/07 04:44:09;;;;;;;3.20;1.48;;;;;;;8.17;100.00;101022.25;5978593;29;20267;-77
2023/01/07 04:47:05;;;;;;;2.50;1.47;;;;;;;8.07;100.00;101018.66;5979947;29;20376;-77
2023/01/07 04:50:00;;;;;;;3.10;1.50;;;;;;;8.10;100.00;101034.25;5979184;29;20290;-77
2023/01/07 04:52:55;;;;;;;2.70;1.30;;;;;;;8.06;100.00;101024.91;5978712;29;20031;-76
2023/01/07 04:55:52;;;;;;;2.43;1.40;;;;;;;8.05;100.00;101036.44;5962101;29;20454;-78
2023/01/07 04:58:47;;;;;;;2.33;1.23;;;;;;;7.93;100.00;101016.31;5978872;29;20038;-77
2023/01/07 05:01:42;;;;;;;3.57;1.80;;;;;;;7.94;100.00;101017.97;5981305;28;20480;-77
2023/01/07 05:04:38;;;;;;;2.97;1.67;;;;;;;7.96;100.00;101002.84;5978148;29;20046;-77
2023/01/07 05:07:33;;;;;;;3.80;1.83;;;;;;;8.04;100.00;101013.66;5979060;29;20040;-76
2023/01/07 05:10:29;;;;;;;4.20;1.53;;;;;;;7.95;100.00;100990.59;5978799;29;20754;-77
2023/01/07 05:13:24;;;;;;;3.88;1.73;;;;;;;7.99;100.00;101013.16;5978120;29;20071;-76
2023/01/07 05:16:19;;;;;;;2.80;1.60;;;;;;;7.89;100.00;100993.72;5978994;29;20467;-77
2023/01/07 05:19:15;;;;;;;2.70;1.37;;;;;;;8.03;100.00;101022.53;5979089;29;20031;-77
2023/01/07 05:22:10;;;;;;;3.20;1.77;;;;;;;7.94;100.00;101006.56;5977885;28;20047;-77
2023/01/07 05:25:05;;;;;;;2.63;1.47;;;;;;;8.06;100.00;101017.00;5978537;29;20346;-76
2023/01/07 05:28:01;;;;;;;3.25;1.45;;;;;;;7.98;100.00;101000.09;5978309;29;20106;-77
2023/01/07 05:30:56;;;;;;;2.53;1.50;;;;;;;8.07;100.00;101016.00;5978065;29;20039;-77
2023/01/07 05:33:51;;;;;;;3.60;1.43;;;;;;;7.96;100.00;101004.66;5977915;29;20082;-77
2023/01/07 05:36:47;;;;;;;3.73;1.70;;;;;;;7.92;100.00;101006.69;5978992;28;20039;-77
2023/01/07 05:39:42;;;;;;;4.78;1.85;;;;;;;7.85;100.00;101002.88;5982945;29;20055;-78
2023/01/07 05:42:38;;;;;;;3.87;1.87;;;;;;;7.91;100.00;101018.19;5978411;29;20130;-78
2023/01/07 05:45:33;;;;;;;3.70;2.00;;;;;;;7.94;100.00;101017.97;5980897;29;20042;-77
2023/01/07 05:48:28;;;;;;;4.53;2.20;;;;;;;7.96;100.00;101009.94;5972014;29;20050;-77
2023/01/07 05:51:23;;;;;;;4.68;2.35;;;;;;;7.82;100.00;100981.16;5982455;29;20402;-76
2023/01/07 05:54:19;;;;;;;6.37;3.10;;;;;;;7.95;100.00;101003.81;5981891;29;20031;-77
2023/01/07 05:57:14;;;;;;;6.40;3.23;;;;;;;8.03;100.00;101011.97;5982025;29;20042;-76
2023/01/07 06:00:10;;;;;;;7.53;3.30;;;;;;;7.97;100.00;101007.16;5982669;29;20111;-77
2023/01/07 06:03:05;;;;;;;6.40;3.30;;;;;;;7.92;100.00;100997.91;5981802;28;20031;-77
2023/01/07 06:06:05;;;;;;;6.50;3.23;;;;;;;7.93;100.00;101004.88;5982069;29;20435;-78
2023/01/07 06:09:01;;;;;;;6.93;2.72;;;;;;;7.89;100.00;101006.94;5982183;29;20459;-77
2023/01/07 06:11:56;;;;;;;7.43;3.17;;;;;;;7.95;100.00;101013.53;5981407;29;20041;-78
2023/01/07 06:14:51;;;;;;;8.17;3.43;;;;;;;7.83;100.00;100999.47;5982045;29;20038;-76
2023/01/07 06:17:47;;;;;;;6.33;3.40;;;;;;;7.81;100.00;100996.13;5981747;29;20043;-77
2023/01/07 06:20:42;;;;;;;7.00;3.30;;;;;;;7.93;100.00;101020.72;5981894;28;20112;-77
2023/01/07 06:23:37;;;;;;;6.77;3.73;;;;;;;7.79;100.00;100992.78;5982104;29;20031;-76
2023/01/07 06:26:33;;;;;;;7.30;3.47;;;;;;;7.84;100.00;101006.47;5982012;28;20147;-78
2023/01/07 06:29:28;;;;;;;6.77;4.00;;;;;;;7.90;100.00;101015.69;5981334;29;20031;-76
2023/01/07 06:32:23;;;;;;;6.47;3.27;;;;;;;7.71;100.00;100989.91;5981190;29;20047;-78
2023/01/07 06:35:18;;;;;;;6.93;3.73;;;;;;;7.72;100.00;101002.13;5981786;29;20023;-76
2023/01/07 06:38:14;;;;;;;9.30;5.13;;;;;;;7.64;100.00;100989.53;5982567;29;20327;-78
2023/01/07 06:41:09;;;;;;;10.10;4.40;;;;;;;7.62;100.00;100988.84;5984024;28;20031;-77
2023/01/07 06:44:04;;;;;;;8.87;4.07;;;;;;;7.67;100.00;100999.03;5981521;29;20407;-76
2023/01/07 06:47:00;;;;;;;8.55;4.88;;;;;;;7.65;100.00;100991.22;5981537;29;20041;-77
2023/01/07 06:49:55;;;;;;;10.80;4.63;;;;;;;7.68;100.00;100992.78;5979475;28;20442;-77
2023/01/07 06:52:50;;;;;;;11.10;5.03;;;;;;;7.60;100.00;100977.56;5984769;28;20042;-78
2023/01/07 06:55:48;;;;;;;9.47;4.40;;;;;;;7.68;100.00;100995.44;5994775;28;20035;-77
2023/01/07 06:58:43;;;;;;;9.68;5.30;;;;;;;7.58;100.00;100970.72;5981313;29;20273;-76
2023/01/07 07:01:38;;;;;;;9.23;4.27;;;;;;;7.68;100.00;100996.28;5980815;29;20027;-77
2023/01/07 07:04:33;;;;;;;10.90;4.97;;;;;;;7.63;100.00;100977.31;5981244;28;20038;-75
2023/01/07 07:07:29;;;;;;;10.20;5.50;;;;;;;7.70;100.00;100977.66;5981762;29;20533;-76
2023/01/07 07:10:24;;;;;;;8.90;4.57;;;;;;;7.78;100.00;100989.31;5963798;29;20027;-77
2023/01/07 07:13:19;;;;;;;7.80;4.33;;;;;;;7.64;100.00;100972.88;5979439;29;20032;-78
2023/01/07 07:16:15;;;;;;;9.77;5.10;;;;;;;7.69;100.00;100960.16;5979789;29;20082;-76
2023/01/07 07:19:10;;;;;;;9.60;4.23;;;;;;;7.77;100.00;100973.59;5983737;28;20039;-77
2023/01/07 07:22:05;;;;;;;10.70;5.60;;;;;;;7.84;100.00;100990.63;5992896;28;20122;-77
2023/01/07 07:25:01;;;;;;;10.73;5.13;;;;;;;7.85;100.00;100987.03;5981909;29;20038;-77
2023/01/07 07:27:56;;;;;;;9.67;4.97;;;;;;;7.86;100.00;100988.69;5982088;29;20062;-75
2023/01/07 07:30:51;;;;;;;10.77;5.07;;;;;;;7.89;100.00;100993.72;5980269;29;20285;-76
2023/01/07 07:33:47;;;;;;;12.18;5.00;;;;;;;7.73;100.00;100975.63;5979172;29;20027;-76
2023/01/07 07:36:42;;;;;;;12.87;6.17;;;;;;;7.79;100.00;100990.16;5980926;29;20035;-76
2023/01/07 07:39:37;;;;;;;11.23;5.65;;;;;;;7.86;100.00;100996.59;5981838;29;20043;-77
2023/01/07 07:42:33;;;;;;;11.30;6.07;;;;;;;7.80;100.00;100994.44;5960586;29;20038;-78
2023/01/07 07:45:28;;;;;;;10.95;5.65;;;;;;;7.80;100.00;101000.56;5983547;29;20058;-75
2023/01/07 07:48:24;;;;;;;12.47;5.97;;;;;;;7.87;100.00;100998.28;5982552;29;20035;-76
2023/01/07 07:51:19;;;;;;;11.53;5.43;;;;;;;7.82;100.00;100999.63;5982535;29;20046;-78
2023/01/07 07:54:15;;;;;;;11.50;6.38;;;;;;;7.78;100.00;100993.72;5965993;29;20079;-76
2023/01/07 07:57:10;;;;;;;12.43;5.57;;;;;;;7.76;100.00;100987.75;5985100;29;20038;-77
2023/01/07 08:00:06;;;;;;;13.00;6.00;;;;;;;7.87;100.00;101000.09;5986325;28;20037;-76
2023/01/07 08:03:01;;;;;;;11.30;5.03;;;;;;;7.94;100.00;101004.75;6006241;28;20023;-76
2023/01/07 08:05:57;;;;;;;10.30;5.57;;;;;;;7.72;100.00;100966.03;5992459;28;20051;-75
2023/01/07 08:08:52;;;;;;;8.50;4.33;;;;;;;7.92;100.00;100997.91;5992648;29;20027;-76
2023/01/07 08:11:47;;;;;;;8.43;4.43;;;;;;;7.87;100.00;100986.88;5992739;29;20031;-78
2023/01/07 08:14:42;;;;;;;11.97;5.33;;;;;;;7.89;100.00;100988.44;5991807;29;20090;-75
2023/01/07 08:17:38;;;;;;;12.13;5.63;;;;;;;7.82;100.00;100976.72;5992745;29;20027;-76
2023/01/07 08:20:34;;;;;;;8.23;4.50;;;;;;;7.88;100.00;100981.47;5990474;28;20066;-76
2023/01/07 08:23:30;;;;;;;7.68;4.38;;;;;;;7.94;100.00;100974.88;5987867;29;20475;-75
2023/01/07 08:26:25;;;;;;;9.27;4.55;;;;;;;8.05;100.00;100986.25;5988522;29;20034;-77
2023/01/07 08:29:21;;;;;;;8.07;4.43;;;;;;;8.10;100.00;100968.22;5990537;29;20104;-78
2023/01/07 08:32:17;;;;;;;8.93;4.68;;;;;;;8.10;100.00;100960.31;5991586;29;20038;-76
2023/01/07 08:35:12;;;;;;;8.00;4.37;;;;;;;8.24;100.00;100975.03;5990801;29;20031;-76
2023/01/07 08:38:08;;;;;;;9.27;4.90;;;;;;;8.16;100.00;100962.47;5989165;29;20432;-77
2023/01/07 08:41:03;;;;;;;10.48;5.18;;;;;;;8.20;100.00;100969.19;5988706;29;20281;-77
2023/01/07 08:43:58;;;;;;;7.90;4.57;;;;;;;8.16;100.00;100959.81;5987810;29;20496;-77
2023/01/07 08:46:54;;;;;;;6.30;3.73;;;;;;;8.21;100.00;100970.84;5988030;29;20291;-76
2023/01/07 08:49:49;;;;;;;7.90;4.03;;;;;;;8.19;100.00;100956.94;5990357;29;20510;-77
2023/01/07 08:52:46;;;;;;;9.47;4.57;;;;;;;8.12;100.00;100957.56;5988385;29;20039;-75
2023/01/07 08:55:41;;;;;;;7.60;3.90;;;;;;;8.18;100.00;100967.63;5989358;29;20038;-75
2023/01/07 08:58:37;;;;;;;6.83;4.07;;;;;;;8.27;100.00;100983.59;5991491;29;20035;-76
2023/01/07 09:01:32;;;;;;;9.55;3.97;;;;;;;8.27;100.00;100965.09;5989582;29;20035;-76
2023/01/07 09:04:38;;;;;;;9.60;4.40;;;;;;;8.43;100.00;100982.34;5986503;29;20036;-76
2023/01/07 09:07:34;;;;;;;8.90;4.00;;;;;;;8.35;100.00;100959.19;5985388;28;20032;-77
2023/01/07 09:10:30;;;;;;;12.10;4.82;;;;;;;8.36;100.00;100964.38;5988112;29;20058;-75
2023/01/07 09:13:25;;;;;;;9.47;4.53;;;;;;;8.32;100.00;100955.00;5987172;28;20111;-77
2023/01/07 09:16:20;;;;;;;8.87;4.27;;;;;;;8.50;100.00;100979.09;5990122;29;20279;-76
2023/01/07 09:19:16;;;;;;;6.87;4.13;;;;;;;8.62;100.00;100977.22;5994557;29;20027;-76
2023/01/07 09:22:11;;;;;;;9.90;4.60;;;;;;;8.61;100.00;100949.13;5993097;28;20038;-76
2023/01/07 09:25:07;;;;;;;12.20;5.03;;;;;;;8.70;100.00;100959.75;5960026;29;20031;-76
2023/01/07 09:28:02;;;;;;;10.10;4.43;;;;;;;8.76;100.00;100964.53;5987570;29;20035;-76
2023/01/07 09:30:58;;;;;;;6.57;3.90;;;;;;;8.92;100.00;100964.06;5988047;29;20038;-77
2023/01/07 09:33:54;;;;;;;6.63;3.00;;;;;;;9.10;100.00;100978.41;5988719;29;20290;-76
2023/01/07 09:36:49;;;;;;;5.22;2.65;;;;;;;9.15;100.00;100957.69;5995729;28;20035;-77
2023/01/07 09:39:44;;;;;;;5.43;2.40;;;;;;;9.21;100.00;100948.41;5993256;28;20439;-76
2023/01/07 09:42:51;;;;;;;5.00;2.92;;;;;;;9.36;100.00;100978.81;5991450;29;20063;-75
2023/01/07 09:45:51;;;;;;;5.60;2.38;;;;;;;9.48;100.00;100972.50;5976726;29;20031;-78
2023/01/07 09:48:52;;;;;;;6.18;3.38;;;;;;;9.45;100.00;100976.25;5974607;29;20043;-77
2023/01/07 09:51:53;;;;;;;5.00;3.10;;;;;;;9.47;100.00;100950.47;5976517;29;20038;-75
2023/01/07 09:54:52;;;;;;;4.93;2.60;;;;;;;9.70;100.00;100953.75;5962490;29;20038;-77
2023/01/07 09:57:48;;;;;;;5.85;3.05;;;;;;;9.69;99.06;100936.19;5970983;29;20050;-77
2023/01/07 10:00:52;;;;;;;6.80;2.70;;;;;;;9.85;99.12;100952.41;5976079;28;20142;-77
2023/01/07 10:04:04;;;;;;;4.78;2.60;;;;;;;10.00;98.86;100952.88;5987761;29;20043;-80
2023/01/07 10:07:08;;;;;;;5.95;2.80;;;;;;;10.09;97.74;100957.31;5989794;28;20106;-79
2023/01/07 10:10:27;;;;;;;4.60;2.53;;;;;;;10.10;97.08;100953.72;5989502;29;20039;-77
2023/01/07 10:13:39;;;;;;;5.88;3.47;;;;;;;9.87;96.19;100909.88;5992519;29;20032;-78
2023/01/07 10:16:44;;;;;;;4.32;2.40;;;;;;;10.00;96.18;100934.31;5990469;29;20406;-76
2023/01/07 10:19:51;;;;;;;4.40;2.05;;;;;;;10.00;96.37;100948.38;5971261;28;20104;-77
2023/01/07 10:22:46;;;;;;;;;;;;;;;10.05;95.83;100942.69;5974570;28;20036;-80
2023/01/07 10:25:44;;;;;;;4.28;1.90;;;;;;;10.02;95.24;100925.25;5991214;29;19970;-78
2023/01/07 10:28:44;;;;;;;5.03;1.75;;;;;;;10.08;93.97;100918.56;5973334;29;20059;-80
2023/01/07 10:31:40;;;;;;;3.00;1.63;;;;;;;10.10;94.13;100920.09;5991481;29;20069;-76
2023/01/07 10:34:46;;;;;;;5.20;1.67;;;;;;;10.08;93.35;100897.38;5991553;29;20096;-77
2023/01/07 10:37:42;;;;;;;3.60;1.85;;;;;;;10.27;92.63;100921.28;5990081;29;20035;-77
2023/01/07 10:40:40;;;;;;;3.00;1.45;;;;;;;10.36;92.49;100909.81;5991054;29;20066;-77
2023/01/07 10:43:55;;;;;;;2.38;1.45;;;;;;;10.35;91.46;100915.28;5970558;29;20106;-76
2023/01/07 10:47:06;;;;;;;5.55;1.13;;;;;;;10.43;91.02;100892.41;5990708;29;20086;-77
2023/01/07 10:50:33;;;;;;;1.77;0.98;;;;;;;10.52;90.21;100896.81;5960168;29;20062;-77
2023/01/07 10:53:43;;;;;;;4.93;1.10;;;;;;;10.84;89.19;100883.25;5977943;29;20027;-76
2023/01/07 10:56:42;;;;;;;1.90;0.88;;;;;;;11.22;87.12;100874.31;5986211;29;20275;-79
2023/01/07 10:59:37;;;;;;;1.55;0.95;;;;;;;11.57;85.67;100858.50;5971251;28;20087;-79
2023/01/07 11:02:32;;;;;;;2.75;1.00;;;;;;;11.82;84.53;100841.84;5970647;29;20454;-78
2023/01/07 11:05:36;;;;;;;1.43;0.70;;;;;;;11.38;84.38;100826.75;5986509;29;20543;-78
2023/01/07 11:08:38;;;;;;;1.25;0.68;;;;;;;11.50;83.26;100854.75;5991212;28;20514;-77
2023/01/07 11:11:35;;;;;;;1.30;0.60;;;;;;;11.50;83.21;100852.09;5985923;29;20039;-77
2023/01/07 11:14:33;;;;;;;1.02;0.60;;;;;;;11.47;83.27;100844.41;5967730;28;20031;-77
2023/01/07 11:17:32;;;;;;;1.00;0.70;;;;;;;11.39;84.05;100831.03;5973890;28;20037;-78
2023/01/07 11:20:48;;;;;;;1.58;0.95;;;;;;;11.16;83.94;100843.06;5987854;28;20544;-77
2023/01/07 11:23:43;;;;;;;1.35;0.90;;;;;;;11.07;84.67;100838.59;5984963;29;20029;-77
2023/01/07 11:26:38;;;;;;;0.50;0.50;;;;;;;11.03;84.30;100821.31;5984799;29;20031;-78
2023/01/07 11:29:37;;;;;;;1.10;0.83;;;;;;;11.07;84.40;100825.34;5989276;29;20553;-77
2023/01/07 11:32:39;;;;;;;1.15;0.70;;;;;;;10.90;84.32;100816.31;5986595;29;20027;-77
2023/01/07 11:35:34;;;;;;;2.08;0.80;;;;;;;10.80;85.48;100810.22;5969216;29;20479;-77
2023/01/07 11:38:32;;;;;;;1.20;0.70;;;;;;;10.76;85.68;100820.28;5988376;29;20027;-77
2023/01/07 11:41:27;;;;;;;1.00;0.50;;;;;;;10.74;85.87;100822.25;5986731;29;20406;-76
2023/01/07 11:44:23;;;;;;;0.97;0.67;;;;;;;10.77;85.86;100816.66;5990497;29;20112;-76
2023/01/07 11:47:18;;;;;;;2.70;0.70;;;;;;;10.84;85.08;100816.09;5985638;29;20259;-78
2023/01/07 11:50:24;;;;;;;1.20;0.73;;;;;;;10.75;84.91;100810.69;5988220;29;20039;-78
2023/01/07 11:53:31;;;;;;;2.80;1.27;;;;;;;10.58;85.69;100795.50;5984452;29;20039;-78
2023/01/07 11:56:31;;;;;;;;;;;;;;;10.62;85.77;100818.13;5987458;29;20475;-79
2023/01/07 11:59:28;;;;;;;1.10;0.70;;;;;;;10.47;86.07;100798.31;5967337;28;20009;-76
2023/01/07 12:02:25;;;;;;;1.30;0.90;;;;;;;10.49;86.10;100792.91;5988155;28;20054;-78
2023/01/07 12:05:22;;;;;;;2.45;0.80;;;;;;;10.50;86.94;100799.84;5985690;29;20110;-80
2023/01/07 12:08:20;;;;;;;1.80;0.82;;;;;;;10.44;86.52;100776.56;5986172;29;20479;-77
2023/01/07 12:11:15;;;;;;;1.35;0.93;;;;;;;10.44;86.99;100772.09;5970773;29;20098;-79
2023/01/07 12:14:14;;;;;;;1.65;0.90;;;;;;;10.44;86.92;100776.56;5984772;29;20034;-77
2023/01/07 12:17:21;;;;;;;1.45;0.90;;;;;;;10.32;87.15;100762.66;5983031;29;20038;-78
2023/01/07 12:20:23;;;;;;;2.03;0.98;;;;;;;10.29;86.73;100751.50;5968116;29;20038;-78
2023/01/07 12:23:36;;;;;;;4.55;1.77;;;;;;;10.26;87.60;100743.81;5982620;29;20087;-77
2023/01/07 12:26:39;;;;;;;1.30;0.80;;;;;;;10.16;87.62;100741.22;5985050;29;20534;-78
2023/01/07 12:29:56;;;;;;;2.15;0.75;;;;;;;10.29;87.26;100752.34;5984759;29;20067;-77
2023/01/07 12:33:00;;;;;;;1.27;0.80;;;;;;;10.29;87.84;100738.25;5968894;29;20050;-77
2023/01/07 12:35:59;;;;;;;1.23;0.70;;;;;;;10.18;87.59;100731.28;5983610;29;20031;-78
2023/01/07 12:38:57;;;;;;;3.40;1.05;;;;;;;10.23;87.61;100739.66;5982386;29;20381;-78
2023/01/07 12:41:58;;;;;;;3.70;1.13;;;;;;;10.17;87.48;100724.31;5982904;29;20031;-77
2023/01/07 12:44:58;;;;;;;5.30;1.83;;;;;;;10.16;87.44;100722.66;5967705;29;20031;-77
2023/01/07 12:48:00;;;;;;;4.97;1.80;;;;;;;10.22;87.36;100723.91;5987308;28;20427;-77
2023/01/07 12:50:57;;;;;;;5.20;1.55;;;;;;;10.19;88.32;100732.13;5986017;29;20053;-78
2023/01/07 12:53:55;;;;;;;4.05;1.50;;;;;;;10.07;88.60;100712.88;5996788;28;20046;-77
2023/01/07 12:57:03;;;;;;;4.78;1.98;;;;;;;10.02;88.10;100713.31;5951594;29;20039;-79
2023/01/07 13:00:00;;;;;;;;;;;;;;;10.12;88.27;100734.47;5979160;28;20033;-76
2023/01/07 13:03:21;;;;;;;4.57;1.80;;;;;;;10.11;88.59;100720.38;5972221;29;19917;-77
2023/01/07 13:06:21;;;;;;;3.47;1.67;;;;;;;10.12;88.30;100726.53;5987160;29;20035;-78
2023/01/07 13:09:26;;;;;;;2.63;1.40;;;;;;;10.10;87.42;100718.75;5969996;29;20478;-77
2023/01/07 13:12:46;;;;;;;4.15;1.50;;;;;;;10.08;87.65;100712.72;5971482;29;20035;-77
2023/01/07 13:15:42;;;;;;;5.97;1.77;;;;;;;10.06;88.59;100713.84;5995116;29;20035;-78
2023/01/07 13:18:37;;;;;;;6.50;3.53;;;;;;;9.95;88.49;100685.72;5993962;29;20047;-76
2023/01/07 13:21:33;;;;;;;4.78;2.15;;;;;;;10.02;88.84;100696.59;5992954;28;20072;-76
2023/01/07 13:24:38;;;;;;;5.10;2.05;;;;;;;9.99;87.73;100687.09;5987306;29;20040;-75
2023/01/07 13:27:54;;;;;;;4.05;1.30;;;;;;;10.03;87.79;100701.72;5970820;29;20035;-75
2023/01/07 13:31:18;;;;;;;2.40;1.35;;;;;;;10.05;86.99;100697.13;5980215;28;20035;-75
2023/01/07 13:34:24;;;;;;;1.90;0.88;;;;;;;10.02;87.60;100696.59;5968168;28;20839;-76
2023/01/07 13:37:50;;;;;;;3.95;2.05;;;;;;;10.02;86.99;100697.44;5968723;29;20806;-75
2023/01/07 13:41:06;;;;;;;2.78;1.30;;;;;;;9.87;87.31;100671.50;5973525;29;20118;-75
2023/01/07 13:44:29;;;;;;;3.33;1.35;;;;;;;9.99;87.23;100687.09;5981473;29;20493;-77
2023/01/07 13:47:32;;;;;;;3.20;0.90;;;;;;;9.90;86.07;100655.31;5981869;29;20043;-76
2023/01/07 13:50:37;;;;;;;5.18;2.15;;;;;;;9.91;85.66;100663.16;5966012;29;20038;-76
2023/01/07 13:53:35;;;;;;;7.43;2.35;;;;;;;10.05;84.55;100664.50;5978178;29;20510;-77
2023/01/07 13:56:35;;;;;;;4.40;1.35;;;;;;;10.00;84.24;100659.63;5982383;29;20070;-77
2023/01/07 13:59:47;;;;;;;2.88;1.10;;;;;;;10.06;83.73;100668.81;5980872;28;20038;-78